createdAt,value
2022-08-16T00:00:04.417Z,22.10
2022-08-16T00:02:33.580Z,22.10
2022-08-16T00:05:01.392Z,22.10
2022-08-16T00:07:29.835Z,22.10
2022-08-16T00:09:58.014Z,22.10
2022-08-16T00:12:28.157Z,22.10
2022-08-16T00:14:57.350Z,22.00
2022-08-16T00:17:28.263Z,22.00
2022-08-16T00:19:56.204Z,22.00
2022-08-16T00:22:27.957Z,22.00
2022-08-16T00:24:55.593Z,22.00
2022-08-16T00:27:23.341Z,21.90
2022-08-16T00:30:00.553Z,21.90
2022-08-16T00:32:32.788Z,21.90
2022-08-16T00:35:00.638Z,21.90
2022-08-16T00:37:56.842Z,21.90
2022-08-16T00:40:35.019Z,21.80
2022-08-16T00:43:16.876Z,21.80
2022-08-16T00:46:22.395Z,21.70
2022-08-16T00:48:55.224Z,21.70
2022-08-16T00:51:25.253Z,21.70
2022-08-16T00:53:56.877Z,21.60
2022-08-16T00:56:56.003Z,21.60
2022-08-16T00:59:24.715Z,21.60
2022-08-16T01:01:53.061Z,21.60
2022-08-16T01:04:29.033Z,21.60
2022-08-16T01:07:01.118Z,21.50
2022-08-16T01:09:33.475Z,21.50
2022-08-16T01:12:03.743Z,21.50
2022-08-16T01:14:39.262Z,21.50
2022-08-16T01:17:12.642Z,21.50
2022-08-16T01:19:45.671Z,21.50
2022-08-16T01:22:48.280Z,21.40
2022-08-16T01:25:36.293Z,21.40
2022-08-16T01:28:09.755Z,21.40
2022-08-16T01:30:49.828Z,21.40
2022-08-16T01:33:19.583Z,21.40
2022-08-16T01:36:09.467Z,21.40
2022-08-16T01:38:49.082Z,21.30
2022-08-16T01:41:26.186Z,21.30
2022-08-16T01:44:01.138Z,21.30
2022-08-16T01:46:40.108Z,21.30
2022-08-16T01:49:18.852Z,21.20
2022-08-16T01:51:50.736Z,21.20
2022-08-16T01:54:17.983Z,21.20
2022-08-16T01:56:58.687Z,21.20
2022-08-16T01:59:27.246Z,21.20
2022-08-16T02:01:59.916Z,21.10
2022-08-16T02:04:48.665Z,21.10
2022-08-16T02:07:18.532Z,21.10
2022-08-16T02:09:57.435Z,21.10
2022-08-16T02:12:50.425Z,21.10
2022-08-16T02:15:16.922Z,21.10
2022-08-16T02:17:44.178Z,21.10
2022-08-16T02:20:12.645Z,21.00
2022-08-16T02:22:40.029Z,21.00
2022-08-16T02:25:14.753Z,21.00
2022-08-16T02:27:44.422Z,20.90
2022-08-16T02:30:37.215Z,20.90
2022-08-16T02:33:10.341Z,20.80
2022-08-16T02:35:53.765Z,20.70
2022-08-16T02:38:22.698Z,20.70
2022-08-16T02:40:50.035Z,20.70
2022-08-16T02:43:17.107Z,20.60
2022-08-16T02:45:44.363Z,20.60
2022-08-16T02:48:28.925Z,20.60
2022-08-16T02:51:06.056Z,20.50
2022-08-16T02:53:43.058Z,20.50
2022-08-16T02:56:15.140Z,20.40
2022-08-16T02:58:49.372Z,20.40
2022-08-16T03:01:25.021Z,20.40
2022-08-16T03:04:30.017Z,20.40
2022-08-16T03:06:56.368Z,20.40
2022-08-16T03:09:25.279Z,20.40
2022-08-16T03:11:57.131Z,20.40
2022-08-16T03:14:25.420Z,20.40
2022-08-16T03:16:59.374Z,20.50
2022-08-16T03:19:48.292Z,20.50
2022-08-16T03:22:27.940Z,20.40
2022-08-16T03:24:58.333Z,20.50
2022-08-16T03:27:31.221Z,20.50
2022-08-16T03:30:16.420Z,20.50
2022-08-16T03:32:47.170Z,20.40
2022-08-16T03:35:17.559Z,20.40
2022-08-16T03:38:02.781Z,20.40
2022-08-16T03:40:33.994Z,20.40
2022-08-16T03:43:20.118Z,20.50
2022-08-16T03:45:49.180Z,20.40
2022-08-16T03:48:20.918Z,20.40
2022-08-16T03:51:08.503Z,20.40
2022-08-16T03:53:37.410Z,20.50
2022-08-16T03:56:07.977Z,20.50
2022-08-16T03:58:50.936Z,20.50
2022-08-16T04:01:24.417Z,20.50
2022-08-16T04:03:57.659Z,20.50
2022-08-16T04:06:24.809Z,20.50
2022-08-16T04:08:52.000Z,20.50
2022-08-16T04:11:20.140Z,20.50
2022-08-16T04:13:59.962Z,20.50
2022-08-16T04:16:35.304Z,20.50
2022-08-16T04:19:04.590Z,20.60
2022-08-16T04:21:34.410Z,20.60
2022-08-16T04:24:08.062Z,20.60
2022-08-16T04:26:35.703Z,20.70
2022-08-16T04:29:16.334Z,20.70
2022-08-16T04:31:46.851Z,20.70
2022-08-16T04:34:28.277Z,20.70
2022-08-16T04:36:56.997Z,20.80
2022-08-16T04:39:37.085Z,20.80
2022-08-16T04:42:12.509Z,20.90
2022-08-16T04:44:53.330Z,20.90
2022-08-16T04:47:32.860Z,20.90
2022-08-16T04:50:02.043Z,21.00
2022-08-16T04:52:34.468Z,21.10
2022-08-16T04:55:08.056Z,21.20
2022-08-16T04:57:35.151Z,21.30
2022-08-16T05:00:32.181Z,21.40
2022-08-16T05:02:56.425Z,21.50
2022-08-16T05:05:32.639Z,21.60
2022-08-16T05:08:29.764Z,21.80
2022-08-16T05:10:51.003Z,21.80
2022-08-16T05:13:19.182Z,22.00
2022-08-16T05:15:47.246Z,22.10
2022-08-16T05:18:18.284Z,22.10
2022-08-16T05:20:54.256Z,22.20
2022-08-16T05:23:31.821Z,22.30
2022-08-16T05:26:00.515Z,22.40
2022-08-16T05:28:30.921Z,22.40
2022-08-16T05:31:06.827Z,22.50
2022-08-16T05:33:34.065Z,22.50
2022-08-16T05:36:03.769Z,22.60
2022-08-16T05:38:38.930Z,22.60
2022-08-16T05:41:09.478Z,22.60
2022-08-16T05:43:43.378Z,22.60
2022-08-16T05:46:28.888Z,22.70
2022-08-16T05:49:04.028Z,22.70
2022-08-16T05:51:39.969Z,22.70
2022-08-16T05:54:09.597Z,22.70
2022-08-16T05:56:39.901Z,22.70
2022-08-16T05:59:07.583Z,22.80
2022-08-16T06:01:38.401Z,22.80
2022-08-16T06:04:13.567Z,22.80
2022-08-16T06:06:57.865Z,23.00
2022-08-16T06:09:42.840Z,23.00
2022-08-16T06:12:26.889Z,23.10
2022-08-16T06:14:59.092Z,23.10
2022-08-16T06:17:42.951Z,23.20
2022-08-16T06:20:35.337Z,23.30
2022-08-16T06:23:17.187Z,23.40
2022-08-16T06:25:53.300Z,23.50
2022-08-16T06:28:34.869Z,23.50
2022-08-16T06:31:06.421Z,23.60
2022-08-16T06:33:41.176Z,23.70
2022-08-16T06:36:09.748Z,23.70
2022-08-16T06:38:38.528Z,23.80
2022-08-16T06:41:23.429Z,23.80
2022-08-16T06:43:55.014Z,23.90
2022-08-16T06:46:35.279Z,24.00
2022-08-16T06:49:11.014Z,24.20
2022-08-16T06:51:46.572Z,24.30
2022-08-16T06:54:16.565Z,24.30
2022-08-16T06:56:43.620Z,24.40
2022-08-16T06:59:11.138Z,24.50
2022-08-16T07:01:43.080Z,24.60
2022-08-16T07:04:32.445Z,24.70
2022-08-16T07:07:02.875Z,24.80
2022-08-16T07:09:30.634Z,25.00
2022-08-16T07:12:03.246Z,25.10
2022-08-16T07:14:33.165Z,25.30
2022-08-16T07:17:00.200Z,25.40
2022-08-16T07:20:01.323Z,25.60
2022-08-16T07:22:37.720Z,25.80
2022-08-16T07:25:08.353Z,25.90
2022-08-16T07:27:37.736Z,26.10
2022-08-16T07:30:46.034Z,26.20
2022-08-16T07:32:56.889Z,26.30
2022-08-16T07:35:24.913Z,26.40
2022-08-16T07:37:52.173Z,26.50
2022-08-16T07:40:19.260Z,26.60
2022-08-16T07:42:52.683Z,26.80
2022-08-16T07:45:20.184Z,27.00
2022-08-16T07:47:47.463Z,27.20
2022-08-16T07:50:56.041Z,27.30
2022-08-16T07:53:06.265Z,27.40
2022-08-16T07:55:45.666Z,27.50
2022-08-16T07:58:18.153Z,27.50
2022-08-16T08:00:46.104Z,27.40
2022-08-16T08:03:13.067Z,27.30
2022-08-16T08:05:43.371Z,27.20
2022-08-16T08:08:11.749Z,27.10
2022-08-16T08:10:57.743Z,26.90
2022-08-16T08:13:42.218Z,26.80
2022-08-16T08:16:18.915Z,26.70
2022-08-16T08:18:56.158Z,26.60
2022-08-16T08:22:00.049Z,26.50
2022-08-16T08:24:15.610Z,26.50
2022-08-16T08:26:43.228Z,26.50
2022-08-16T08:29:12.034Z,26.50
2022-08-16T08:31:42.419Z,26.50
2022-08-16T08:34:12.827Z,26.50
2022-08-16T08:36:40.207Z,26.60
2022-08-16T08:39:13.091Z,26.80
2022-08-16T08:41:42.340Z,27.00
2022-08-16T08:44:28.866Z,27.20
2022-08-16T08:47:04.782Z,27.40
2022-08-16T08:49:46.308Z,27.50
2022-08-16T08:52:35.274Z,27.60
2022-08-16T08:55:10.954Z,27.70
2022-08-16T08:57:46.644Z,27.70
2022-08-16T09:00:17.798Z,27.80
2022-08-16T09:02:52.114Z,27.80
2022-08-16T09:05:22.143Z,28.00
2022-08-16T09:08:01.813Z,28.10
2022-08-16T09:10:33.821Z,28.20
2022-08-16T09:13:02.219Z,28.30
2022-08-16T09:15:33.108Z,28.50
2022-08-16T09:18:25.083Z,28.70
2022-08-16T09:20:58.389Z,28.90
2022-08-16T09:23:27.157Z,29.00
2022-08-16T09:25:54.869Z,29.10
2022-08-16T09:29:13.509Z,29.20
2022-08-16T09:31:10.794Z,29.20
2022-08-16T09:33:39.314Z,29.30
2022-08-16T09:36:11.830Z,29.50
2022-08-16T09:39:00.018Z,29.60
2022-08-16T09:41:28.165Z,29.90
2022-08-16T09:43:59.749Z,30.00
2022-08-16T09:46:45.635Z,30.20
2022-08-16T09:49:19.818Z,30.40
2022-08-16T09:51:53.678Z,30.60
2022-08-16T09:54:25.474Z,30.70
2022-08-16T09:57:00.171Z,30.80
2022-08-16T09:59:30.440Z,30.90
2022-08-16T10:01:58.724Z,31.00
2022-08-16T10:04:33.173Z,31.10
2022-08-16T10:07:15.676Z,31.20
2022-08-16T10:09:54.622Z,31.20
2022-08-16T10:12:55.756Z,31.20
2022-08-16T10:15:24.458Z,31.20
2022-08-16T10:18:01.134Z,31.10
2022-08-16T10:20:33.921Z,31.00
2022-08-16T10:23:07.089Z,31.00
2022-08-16T10:27:17.502Z,30.90
2022-08-16T10:28:32.173Z,30.80
2022-08-16T10:31:06.844Z,30.90
2022-08-16T10:33:35.096Z,30.90
2022-08-16T10:36:09.041Z,30.90
2022-08-16T10:38:39.889Z,31.00
2022-08-16T10:41:10.753Z,31.10
2022-08-16T10:43:43.386Z,31.10
2022-08-16T10:46:39.379Z,31.20
2022-08-16T10:49:00.903Z,31.20
2022-08-16T10:51:34.254Z,31.20
2022-08-16T10:54:28.630Z,31.10
2022-08-16T10:56:59.035Z,31.00
2022-08-16T10:59:38.516Z,30.90
2022-08-16T11:02:59.579Z,30.90
2022-08-16T11:05:06.529Z,31.00
2022-08-16T11:07:52.279Z,31.10
2022-08-16T11:17:02.639Z,31.40
2022-08-16T11:19:05.463Z,31.50
2022-08-16T11:22:22.892Z,31.60
2022-08-16T11:24:42.797Z,31.80
2022-08-16T11:27:19.634Z,31.90
2022-08-16T11:29:52.234Z,31.90
2022-08-16T11:32:29.683Z,32.00
2022-08-16T11:35:14.299Z,32.00
2022-08-16T11:40:58.150Z,32.20
2022-08-16T11:43:33.295Z,32.40
2022-08-16T11:46:43.805Z,32.60
2022-08-16T11:48:53.988Z,33.00
2022-08-16T11:51:21.505Z,33.40
2022-08-16T11:53:48.465Z,34.00
2022-08-16T11:56:16.217Z,34.70
2022-08-16T11:58:51.792Z,35.60
2022-08-16T12:01:29.905Z,36.40
2022-08-16T12:04:13.361Z,37.00
2022-08-16T12:06:40.894Z,37.80
2022-08-16T12:09:08.488Z,38.60
2022-08-16T12:11:37.951Z,39.40
2022-08-16T12:14:07.344Z,40.10
2022-08-16T12:16:35.654Z,40.80
2022-08-16T12:19:10.571Z,41.20
2022-08-16T12:21:58.394Z,41.60
2022-08-16T12:24:27.712Z,42.10
2022-08-16T12:26:55.550Z,42.50
2022-08-16T12:29:23.297Z,42.80
2022-08-16T12:32:00.839Z,43.00
2022-08-16T12:34:50.489Z,43.10
2022-08-16T12:37:20.836Z,43.10
2022-08-16T12:39:50.809Z,43.00
2022-08-16T12:42:20.395Z,43.10
2022-08-16T12:44:50.185Z,43.20
2022-08-16T12:47:36.884Z,43.30
2022-08-16T12:50:07.646Z,43.40
2022-08-16T12:52:52.185Z,43.50
2022-08-16T12:55:20.862Z,43.70
2022-08-16T12:57:57.879Z,43.80
2022-08-16T13:00:33.127Z,44.00
2022-08-16T13:03:03.193Z,44.20
2022-08-16T13:08:03.606Z,44.60
2022-08-16T13:10:37.646Z,44.80
2022-08-16T13:13:08.942Z,44.80
2022-08-16T13:15:57.204Z,44.60
2022-08-16T13:18:33.877Z,44.50
2022-08-16T13:21:04.970Z,44.20
2022-08-16T13:23:33.292Z,43.60
2022-08-16T13:26:04.453Z,42.80
2022-08-16T13:28:32.389Z,42.10
2022-08-16T13:31:01.205Z,41.80
2022-08-16T13:33:37.162Z,41.70
2022-08-16T13:36:08.413Z,41.70
2022-08-16T13:38:49.303Z,41.90
2022-08-16T13:41:19.456Z,42.00
2022-08-16T13:43:46.492Z,42.20
2022-08-16T13:46:26.259Z,42.20
2022-08-16T13:48:53.633Z,42.40
2022-08-16T13:51:23.812Z,42.60
2022-08-16T13:53:59.163Z,42.80
2022-08-16T13:56:36.841Z,42.80
2022-08-16T13:59:06.505Z,43.00
2022-08-16T14:01:54.738Z,43.20
2022-08-16T14:04:26.559Z,43.10
2022-08-16T14:06:57.813Z,42.80
2022-08-16T14:09:27.168Z,42.70
2022-08-16T14:12:00.728Z,42.50
2022-08-16T14:14:30.015Z,42.40
2022-08-16T14:17:02.179Z,42.30
2022-08-16T14:19:30.142Z,42.20
2022-08-16T14:22:15.491Z,42.20
2022-08-16T14:24:50.191Z,42.00
2022-08-16T14:27:21.368Z,41.80
2022-08-16T14:29:51.249Z,41.70
2022-08-16T14:32:34.378Z,41.30
2022-08-16T14:35:08.429Z,40.90
2022-08-16T14:37:37.229Z,40.50
2022-08-16T14:40:09.763Z,40.30
2022-08-16T14:42:38.182Z,40.00
2022-08-16T14:45:07.588Z,39.90
2022-08-16T14:47:37.404Z,40.00
2022-08-16T14:50:07.934Z,40.00
2022-08-16T14:52:54.587Z,40.10
2022-08-16T14:55:23.412Z,40.40
2022-08-16T14:57:52.863Z,40.70
2022-08-16T15:00:27.167Z,40.80
2022-08-16T15:03:03.029Z,41.00
2022-08-16T15:05:32.106Z,41.10
2022-08-16T15:07:59.991Z,41.10
2022-08-16T15:10:29.392Z,41.30
2022-08-16T15:13:01.157Z,41.30
2022-08-16T15:15:30.486Z,41.10
2022-08-16T15:17:59.233Z,40.50
2022-08-16T15:20:33.074Z,39.60
2022-08-16T15:23:03.290Z,38.60
2022-08-16T15:25:43.655Z,37.80
2022-08-16T15:28:30.557Z,36.90
2022-08-16T15:31:03.461Z,36.10
2022-08-16T15:33:34.216Z,35.30
2022-08-16T15:36:03.565Z,34.80
2022-08-16T15:38:57.786Z,34.60
2022-08-16T15:41:42.555Z,34.50
2022-08-16T15:44:21.290Z,34.70
2022-08-16T15:46:55.805Z,34.80
2022-08-16T15:49:37.613Z,34.80
2022-08-16T15:52:24.990Z,34.70
2022-08-16T15:54:59.392Z,34.60
2022-08-16T15:57:28.763Z,34.70
2022-08-16T16:00:14.942Z,35.10
2022-08-16T16:02:43.166Z,35.50
2022-08-16T16:05:10.610Z,35.90
2022-08-16T16:07:39.416Z,36.10
2022-08-16T16:10:13.030Z,36.30
2022-08-16T16:12:52.896Z,36.40
2022-08-16T16:15:25.278Z,36.30
2022-08-16T16:17:53.624Z,36.10
2022-08-16T16:20:27.142Z,35.80
2022-08-16T16:23:01.628Z,35.30
2022-08-16T16:25:30.124Z,34.90
2022-08-16T16:27:59.581Z,34.50
2022-08-16T16:30:37.181Z,34.30
2022-08-16T16:33:21.143Z,34.00
2022-08-16T16:35:55.322Z,33.60
2022-08-16T16:38:31.227Z,33.40
2022-08-16T16:41:08.931Z,33.10
2022-08-16T16:43:41.166Z,32.80
2022-08-16T16:46:40.259Z,32.60
2022-08-16T16:48:55.737Z,32.40
2022-08-16T16:51:23.238Z,32.10
2022-08-16T16:53:56.068Z,31.90
2022-08-16T16:56:30.254Z,31.70
2022-08-16T16:59:04.658Z,31.40
2022-08-16T17:01:57.431Z,31.30
2022-08-16T17:04:31.598Z,31.10
2022-08-16T17:07:02.133Z,30.80
2022-08-16T17:09:30.935Z,30.70
2022-08-16T17:11:58.990Z,30.50
2022-08-16T17:14:31.864Z,30.30
2022-08-16T17:17:04.091Z,30.10
2022-08-16T17:19:31.932Z,29.90
2022-08-16T17:22:00.542Z,29.70
2022-08-16T17:24:39.378Z,29.50
2022-08-16T17:27:08.271Z,29.40
2022-08-16T17:29:42.915Z,29.30
2022-08-16T17:32:33.914Z,29.20
2022-08-16T17:35:17.866Z,29.10
2022-08-16T17:37:50.874Z,28.90
2022-08-16T17:40:47.426Z,28.70
2022-08-16T17:43:17.271Z,28.60
2022-08-16T17:45:44.545Z,28.40
2022-08-16T17:48:12.288Z,28.30
2022-08-16T17:50:40.920Z,28.20
2022-08-16T17:53:08.892Z,28.00
2022-08-16T17:55:38.354Z,27.90
2022-08-16T17:58:17.575Z,27.80
2022-08-16T18:00:56.521Z,27.70
2022-08-16T18:04:08.570Z,27.50
2022-08-16T18:06:23.004Z,27.40
2022-08-16T18:08:55.893Z,27.30
2022-08-16T18:11:27.828Z,27.20
2022-08-16T18:13:56.493Z,27.10
2022-08-16T18:16:23.860Z,27.00
2022-08-16T18:18:50.916Z,26.90
2022-08-16T18:21:36.741Z,26.90
2022-08-16T18:24:04.255Z,26.80
2022-08-16T18:26:31.420Z,26.70
2022-08-16T18:28:58.628Z,26.70
2022-08-16T18:31:25.709Z,26.60
2022-08-16T18:33:55.657Z,26.50
2022-08-16T18:36:24.019Z,26.50
2022-08-16T18:38:52.770Z,26.40
2022-08-16T18:41:21.641Z,26.30
2022-08-16T18:44:23.827Z,26.20
2022-08-16T18:46:35.602Z,26.20
2022-08-16T18:49:02.518Z,26.10
2022-08-16T18:51:29.393Z,26.00
2022-08-16T18:53:56.243Z,25.90
2022-08-16T18:56:23.253Z,25.80
2022-08-16T18:59:10.103Z,25.70
2022-08-16T19:01:37.018Z,25.70
2022-08-16T19:04:04.276Z,25.60
2022-08-16T19:06:31.141Z,25.50
2022-08-16T19:08:58.009Z,25.40
2022-08-16T19:11:28.322Z,25.30
2022-08-16T19:13:56.967Z,25.20
2022-08-16T19:16:23.895Z,25.10
2022-08-16T19:18:50.801Z,25.00
2022-08-16T19:21:17.726Z,24.90
2022-08-16T19:23:45.186Z,24.80
2022-08-16T19:26:25.972Z,24.70
2022-08-16T19:28:59.123Z,24.60
2022-08-16T19:31:31.451Z,24.60
2022-08-16T19:33:59.061Z,24.50
2022-08-16T19:36:35.468Z,24.50
2022-08-16T19:39:10.019Z,24.50
2022-08-16T19:41:40.723Z,24.50
2022-08-16T19:44:08.221Z,24.40
2022-08-16T19:46:35.950Z,24.40
2022-08-16T19:49:04.948Z,24.40
2022-08-16T19:51:31.891Z,24.40
2022-08-16T19:53:59.207Z,24.40
2022-08-16T19:56:27.015Z,24.40
2022-08-16T20:01:43.796Z,24.40
2022-08-16T20:04:12.787Z,24.40
2022-08-16T20:06:41.583Z,24.40
2022-08-16T20:09:10.489Z,24.50
2022-08-16T20:11:42.005Z,24.50
2022-08-16T20:14:09.097Z,24.50
2022-08-16T20:16:36.246Z,24.50
2022-08-16T20:19:04.374Z,24.50
2022-08-16T20:21:31.673Z,24.50
2022-08-16T20:24:22.776Z,24.50
2022-08-16T20:26:45.685Z,24.50
2022-08-16T20:29:12.879Z,24.40
2022-08-16T20:31:40.045Z,24.40
2022-08-16T20:34:07.153Z,24.40
2022-08-16T20:36:34.079Z,24.40
2022-08-16T20:39:04.136Z,24.40
2022-08-16T20:41:36.711Z,24.40
2022-08-16T20:44:04.104Z,24.30
2022-08-16T20:46:31.005Z,24.30
2022-08-16T20:48:58.228Z,24.20
2022-08-16T20:51:26.284Z,24.20
2022-08-16T20:53:53.458Z,24.10
2022-08-16T20:56:20.573Z,24.00
2022-08-16T20:58:47.801Z,23.90
2022-08-16T21:01:14.942Z,23.90
2022-08-16T21:03:42.079Z,23.90
2022-08-16T21:06:09.029Z,23.90
2022-08-16T21:08:52.131Z,23.80
2022-08-16T21:11:21.773Z,23.80
2022-08-16T21:13:50.516Z,23.70
2022-08-16T21:16:22.447Z,23.60
2022-08-16T21:18:50.410Z,23.50
2022-08-16T21:21:19.807Z,23.50
2022-08-16T21:23:50.100Z,23.40
2022-08-16T21:26:17.053Z,23.40
2022-08-16T21:28:44.720Z,23.30
2022-08-16T21:31:14.177Z,23.40
2022-08-16T21:33:42.585Z,23.30
2022-08-16T21:36:10.982Z,23.20
2022-08-16T21:38:38.557Z,23.10
2022-08-16T21:41:06.845Z,23.10
2022-08-16T21:43:34.396Z,23.00
2022-08-16T21:46:06.446Z,23.00
2022-08-16T21:48:35.863Z,23.00
2022-08-16T21:51:14.820Z,23.00
2022-08-16T21:53:43.512Z,23.00
2022-08-16T21:56:14.966Z,22.90
2022-08-16T21:58:46.191Z,22.90
2022-08-16T22:01:13.448Z,22.90
2022-08-16T22:03:40.668Z,22.80
2022-08-16T22:06:12.074Z,22.80
2022-08-16T22:08:50.623Z,22.70
2022-08-16T22:11:23.972Z,22.70
2022-08-16T22:13:58.995Z,22.60
2022-08-16T22:16:28.790Z,22.50
2022-08-16T22:18:55.929Z,22.50
2022-08-16T22:21:23.646Z,22.60
2022-08-16T22:23:56.981Z,22.60
2022-08-16T22:26:31.842Z,22.50
2022-08-16T22:29:10.692Z,22.50
2022-08-16T22:31:41.300Z,22.50
2022-08-16T22:34:09.064Z,22.40
2022-08-16T22:36:36.560Z,22.40
2022-08-16T22:39:07.347Z,22.30
2022-08-16T22:41:36.383Z,22.20
2022-08-16T22:44:04.869Z,22.20
2022-08-16T22:46:32.601Z,22.10
2022-08-16T22:48:59.559Z,22.00
2022-08-16T22:51:28.635Z,22.00
2022-08-16T22:53:57.051Z,22.00
2022-08-16T22:56:25.080Z,22.00
2022-08-16T22:58:52.753Z,22.00
2022-08-16T23:01:23.621Z,21.90
2022-08-16T23:03:57.297Z,21.90
2022-08-16T23:06:24.797Z,21.80
2022-08-16T23:08:52.217Z,21.80
2022-08-16T23:11:22.882Z,21.70
2022-08-16T23:13:55.525Z,21.80
2022-08-16T23:16:33.062Z,21.80
2022-08-16T23:19:12.782Z,21.70
2022-08-16T23:21:44.427Z,21.70
2022-08-16T23:24:12.637Z,21.70
2022-08-16T23:26:46.442Z,21.60
2022-08-16T23:29:23.157Z,21.60
2022-08-16T23:31:54.274Z,21.60
2022-08-16T23:34:22.519Z,21.60
2022-08-16T23:36:49.473Z,21.60
2022-08-16T23:39:16.635Z,21.60
2022-08-16T23:41:44.577Z,21.50
2022-08-16T23:44:45.570Z,21.50
2022-08-16T23:46:59.050Z,21.50
2022-08-16T23:49:56.076Z,21.50
2022-08-16T23:52:13.257Z,21.50
2022-08-16T23:54:40.409Z,21.50
2022-08-16T23:57:08.503Z,21.50
2022-08-16T23:59:43.764Z,21.40
